sensor_id;sensor_type;location;lat;lon;timestamp;temperature;humidity
62991;DHT22;49084;48.204;16.202;2022-12-11T00:03:49;1.50;99.90
62991;DHT22;49084;48.204;16.202;2022-12-11T00:06:18;1.50;99.90
62991;DHT22;49084;48.204;16.202;2022-12-11T00:08:44;1.50;99.90
62991;DHT22;49084;48.204;16.202;2022-12-11T00:11:14;1.50;99.90
62991;DHT22;49084;48.204;16.202;2022-12-11T00:13:41;1.50;99.90
62991;DHT22;49084;48.204;16.202;2022-12-11T00:16:07;1.50;99.90
62991;DHT22;49084;48.204;16.202;2022-12-11T00:18:33;1.40;99.90
62991;DHT22;49084;48.204;16.202;2022-12-11T00:21:00;1.50;99.90
62991;DHT22;49084;48.204;16.202;2022-12-11T00:23:27;1.50;99.90
62991;DHT22;49084;48.204;16.202;2022-12-11T00:25:52;1.50;99.90
62991;DHT22;49084;48.204;16.202;2022-12-11T00:28:18;1.50;99.90
62991;DHT22;49084;48.204;16.202;2022-12-11T00:30:45;1.50;99.90
62991;DHT22;49084;48.204;16.202;2022-12-11T00:33:12;1.60;99.90
62991;DHT22;49084;48.204;16.202;2022-12-11T00:35:42;1.60;99.90
62991;DHT22;49084;48.204;16.202;2022-12-11T00:38:08;1.60;99.90
62991;DHT22;49084;48.204;16.202;2022-12-11T00:40:35;1.60;99.90
62991;DHT22;49084;48.204;16.202;2022-12-11T00:43:01;1.80;99.90
62991;DHT22;49084;48.204;16.202;2022-12-11T00:45:42;1.80;99.90
62991;DHT22;49084;48.204;16.202;2022-12-11T00:48:10;1.60;99.90
62991;DHT22;49084;48.204;16.202;2022-12-11T00:50:36;1.60;99.90
62991;DHT22;49084;48.204;16.202;2022-12-11T00:53:02;1.60;99.90
62991;DHT22;49084;48.204;16.202;2022-12-11T00:55:28;1.60;99.90
62991;DHT22;49084;48.204;16.202;2022-12-11T00:57:55;1.60;99.90
62991;DHT22;49084;48.204;16.202;2022-12-11T01:00:21;1.60;99.90
62991;DHT22;49084;48.204;16.202;2022-12-11T01:02:48;1.60;99.90
62991;DHT22;49084;48.204;16.202;2022-12-11T01:05:14;1.60;99.90
62991;DHT22;49084;48.204;16.202;2022-12-11T01:07:40;1.60;99.90
62991;DHT22;49084;48.204;16.202;2022-12-11T01:10:05;1.60;99.90
62991;DHT22;49084;48.204;16.202;2022-12-11T01:13:01;1.60;99.90
62991;DHT22;49084;48.204;16.202;2022-12-11T01:15:30;1.60;99.90
62991;DHT22;49084;48.204;16.202;2022-12-11T01:17:56;1.60;99.90
62991;DHT22;49084;48.204;16.202;2022-12-11T01:20:23;1.60;99.90
62991;DHT22;49084;48.204;16.202;2022-12-11T01:22:57;1.60;99.90
62991;DHT22;49084;48.204;16.202;2022-12-11T01:25:24;1.60;99.90
62991;DHT22;49084;48.204;16.202;2022-12-11T01:27:51;1.50;99.90
62991;DHT22;49084;48.204;16.202;2022-12-11T01:30:19;1.50;99.90
62991;DHT22;49084;48.204;16.202;2022-12-11T01:32:45;1.50;99.90
62991;DHT22;49084;48.204;16.202;2022-12-11T01:35:11;1.40;99.90
62991;DHT22;49084;48.204;16.202;2022-12-11T01:37:37;1.40;99.90
62991;DHT22;49084;48.204;16.202;2022-12-11T01:40:05;1.40;99.90
62991;DHT22;49084;48.204;16.202;2022-12-11T01:42:31;1.40;99.90
62991;DHT22;49084;48.204;16.202;2022-12-11T01:45:30;1.40;99.90
62991;DHT22;49084;48.204;16.202;2022-12-11T01:47:58;1.40;99.90
62991;DHT22;49084;48.204;16.202;2022-12-11T01:50:25;1.50;99.90
62991;DHT22;49084;48.204;16.202;2022-12-11T01:52:52;1.40;99.90
62991;DHT22;49084;48.204;16.202;2022-12-11T01:55:18;1.40;99.90
62991;DHT22;49084;48.204;16.202;2022-12-11T01:57:47;1.40;99.90
62991;DHT22;49084;48.204;16.202;2022-12-11T02:00:13;1.40;99.90
62991;DHT22;49084;48.204;16.202;2022-12-11T02:02:40;1.40;99.90
62991;DHT22;49084;48.204;16.202;2022-12-11T02:05:06;1.40;99.90
62991;DHT22;49084;48.204;16.202;2022-12-11T02:07:38;1.40;99.90
62991;DHT22;49084;48.204;16.202;2022-12-11T02:10:05;1.40;99.90
62991;DHT22;49084;48.204;16.202;2022-12-11T02:15:35;1.40;99.90
62991;DHT22;49084;48.204;16.202;2022-12-11T02:18:06;1.40;99.90
62991;DHT22;49084;48.204;16.202;2022-12-11T02:21:02;1.40;99.90
62991;DHT22;49084;48.204;16.202;2022-12-11T02:23:52;1.40;99.90
62991;DHT22;49084;48.204;16.202;2022-12-11T02:29:30;1.30;99.90
62991;DHT22;49084;48.204;16.202;2022-12-11T02:32:13;1.30;99.90
62991;DHT22;49084;48.204;16.202;2022-12-11T02:34:45;1.30;99.90
62991;DHT22;49084;48.204;16.202;2022-12-11T02:37:18;1.30;99.90
62991;DHT22;49084;48.204;16.202;2022-12-11T02:39:44;1.30;99.90
62991;DHT22;49084;48.204;16.202;2022-12-11T02:42:12;1.30;99.90
62991;DHT22;49084;48.204;16.202;2022-12-11T02:44:39;1.30;99.90
62991;DHT22;49084;48.204;16.202;2022-12-11T02:47:08;1.30;99.90
62991;DHT22;49084;48.204;16.202;2022-12-11T02:49:35;1.20;99.90
62991;DHT22;49084;48.204;16.202;2022-12-11T02:52:03;1.30;99.90
62991;DHT22;49084;48.204;16.202;2022-12-11T02:54:32;1.20;99.90
62991;DHT22;49084;48.204;16.202;2022-12-11T02:57:08;1.30;99.90
62991;DHT22;49084;48.204;16.202;2022-12-11T02:59:38;1.20;99.90
62991;DHT22;49084;48.204;16.202;2022-12-11T03:02:05;1.20;99.90
62991;DHT22;49084;48.204;16.202;2022-12-11T03:04:33;1.20;99.90
62991;DHT22;49084;48.204;16.202;2022-12-11T03:07:05;1.20;99.90
62991;DHT22;49084;48.204;16.202;2022-12-11T03:09:37;1.50;99.90
62991;DHT22;49084;48.204;16.202;2022-12-11T03:12:05;1.30;99.90
62991;DHT22;49084;48.204;16.202;2022-12-11T03:14:31;1.30;99.90
62991;DHT22;49084;48.204;16.202;2022-12-11T03:17:11;1.40;99.90
62991;DHT22;49084;48.204;16.202;2022-12-11T03:19:52;1.30;99.90
62991;DHT22;49084;48.204;16.202;2022-12-11T03:22:44;1.30;99.90
62991;DHT22;49084;48.204;16.202;2022-12-11T03:25:21;1.30;99.90
62991;DHT22;49084;48.204;16.202;2022-12-11T03:28:04;1.30;99.90
62991;DHT22;49084;48.204;16.202;2022-12-11T03:30:34;1.30;99.90
62991;DHT22;49084;48.204;16.202;2022-12-11T03:33:04;1.30;99.90
62991;DHT22;49084;48.204;16.202;2022-12-11T03:35:44;1.40;99.90
62991;DHT22;49084;48.204;16.202;2022-12-11T03:38:15;1.40;99.90
62991;DHT22;49084;48.204;16.202;2022-12-11T03:40:45;1.40;99.90
62991;DHT22;49084;48.204;16.202;2022-12-11T03:43:13;1.30;99.90
62991;DHT22;49084;48.204;16.202;2022-12-11T03:45:41;1.60;99.90
62991;DHT22;49084;48.204;16.202;2022-12-11T03:48:08;1.60;99.90
62991;DHT22;49084;48.204;16.202;2022-12-11T03:50:35;1.30;99.90
62991;DHT22;49084;48.204;16.202;2022-12-11T03:53:02;1.50;99.90
62991;DHT22;49084;48.204;16.202;2022-12-11T03:55:29;1.50;99.90
62991;DHT22;49084;48.204;16.202;2022-12-11T03:57:57;1.30;99.90
62991;DHT22;49084;48.204;16.202;2022-12-11T04:00:23;1.40;99.90
62991;DHT22;49084;48.204;16.202;2022-12-11T04:02:49;1.30;99.90
62991;DHT22;49084;48.204;16.202;2022-12-11T04:05:34;1.30;99.90
62991;DHT22;49084;48.204;16.202;2022-12-11T04:08:41;1.30;99.90
62991;DHT22;49084;48.204;16.202;2022-12-11T04:11:06;1.20;99.90
62991;DHT22;49084;48.204;16.202;2022-12-11T04:13:51;1.20;99.90
62991;DHT22;49084;48.204;16.202;2022-12-11T04:16:36;1.20;99.90
62991;DHT22;49084;48.204;16.202;2022-12-11T04:19:03;1.20;99.90
62991;DHT22;49084;48.204;16.202;2022-12-11T04:21:47;1.20;99.90
62991;DHT22;49084;48.204;16.202;2022-12-11T04:24:31;1.20;99.90
62991;DHT22;49084;48.204;16.202;2022-12-11T04:26:57;1.20;99.90
62991;DHT22;49084;48.204;16.202;2022-12-11T04:29:23;1.20;99.90
62991;DHT22;49084;48.204;16.202;2022-12-11T04:31:48;1.20;99.90
62991;DHT22;49084;48.204;16.202;2022-12-11T04:34:15;1.20;99.90
62991;DHT22;49084;48.204;16.202;2022-12-11T04:36:41;1.30;99.90
62991;DHT22;49084;48.204;16.202;2022-12-11T04:39:06;1.20;99.90
62991;DHT22;49084;48.204;16.202;2022-12-11T04:41:33;1.10;99.90
62991;DHT22;49084;48.204;16.202;2022-12-11T04:43:59;1.10;99.90
62991;DHT22;49084;48.204;16.202;2022-12-11T04:46:25;1.00;99.90
62991;DHT22;49084;48.204;16.202;2022-12-11T04:48:51;1.10;99.90
62991;DHT22;49084;48.204;16.202;2022-12-11T04:51:18;0.90;99.90
62991;DHT22;49084;48.204;16.202;2022-12-11T04:53:44;0.90;99.90
62991;DHT22;49084;48.204;16.202;2022-12-11T04:56:13;0.90;99.90
62991;DHT22;49084;48.204;16.202;2022-12-11T04:58:40;0.80;99.90
62991;DHT22;49084;48.204;16.202;2022-12-11T05:01:11;1.20;99.90
62991;DHT22;49084;48.204;16.202;2022-12-11T05:03:38;0.60;99.90
62991;DHT22;49084;48.204;16.202;2022-12-11T05:06:04;0.90;99.90
62991;DHT22;49084;48.204;16.202;2022-12-11T05:08:29;0.50;99.90
62991;DHT22;49084;48.204;16.202;2022-12-11T05:11:00;0.60;99.90
62991;DHT22;49084;48.204;16.202;2022-12-11T05:13:27;1.30;99.90
62991;DHT22;49084;48.204;16.202;2022-12-11T05:15:53;0.80;99.90
62991;DHT22;49084;48.204;16.202;2022-12-11T05:18:19;0.30;99.90
62991;DHT22;49084;48.204;16.202;2022-12-11T05:20:57;0.30;99.90
62991;DHT22;49084;48.204;16.202;2022-12-11T05:23:23;1.20;99.90
62991;DHT22;49084;48.204;16.202;2022-12-11T05:25:57;0.30;99.90
62991;DHT22;49084;48.204;16.202;2022-12-11T05:28:25;0.30;99.90
62991;DHT22;49084;48.204;16.202;2022-12-11T05:30:58;0.30;99.90
62991;DHT22;49084;48.204;16.202;2022-12-11T05:33:25;0.40;99.90
62991;DHT22;49084;48.204;16.202;2022-12-11T05:35:51;0.80;99.90
62991;DHT22;49084;48.204;16.202;2022-12-11T05:38:17;1.00;99.90
62991;DHT22;49084;48.204;16.202;2022-12-11T05:40:43;1.20;99.90
62991;DHT22;49084;48.204;16.202;2022-12-11T05:43:08;0.50;99.90
62991;DHT22;49084;48.204;16.202;2022-12-11T05:45:34;0.40;99.90
62991;DHT22;49084;48.204;16.202;2022-12-11T05:48:00;0.50;99.90
62991;DHT22;49084;48.204;16.202;2022-12-11T05:50:25;0.80;99.90
62991;DHT22;49084;48.204;16.202;2022-12-11T05:52:51;1.00;99.90
62991;DHT22;49084;48.204;16.202;2022-12-11T05:55:17;0.80;99.90
62991;DHT22;49084;48.204;16.202;2022-12-11T05:57:42;0.50;99.90
62991;DHT22;49084;48.204;16.202;2022-12-11T06:00:11;0.80;99.90
62991;DHT22;49084;48.204;16.202;2022-12-11T06:02:36;0.60;99.90
62991;DHT22;49084;48.204;16.202;2022-12-11T06:05:02;0.60;99.90
62991;DHT22;49084;48.204;16.202;2022-12-11T06:07:28;0.60;99.90
62991;DHT22;49084;48.204;16.202;2022-12-11T06:09:53;0.60;99.90
62991;DHT22;49084;48.204;16.202;2022-12-11T06:12:19;0.70;99.90
62991;DHT22;49084;48.204;16.202;2022-12-11T06:14:45;0.60;99.90
62991;DHT22;49084;48.204;16.202;2022-12-11T06:17:10;0.60;99.90
62991;DHT22;49084;48.204;16.202;2022-12-11T06:19:36;1.00;99.90
62991;DHT22;49084;48.204;16.202;2022-12-11T06:22:02;0.70;99.90
62991;DHT22;49084;48.204;16.202;2022-12-11T06:24:28;0.80;99.90
62991;DHT22;49084;48.204;16.202;2022-12-11T06:26:53;0.70;99.90
62991;DHT22;49084;48.204;16.202;2022-12-11T06:29:19;0.80;99.90
62991;DHT22;49084;48.204;16.202;2022-12-11T06:31:45;0.70;99.90
62991;DHT22;49084;48.204;16.202;2022-12-11T06:34:11;0.70;99.90
62991;DHT22;49084;48.204;16.202;2022-12-11T06:36:38;0.70;99.90
62991;DHT22;49084;48.204;16.202;2022-12-11T06:39:03;0.80;99.90
62991;DHT22;49084;48.204;16.202;2022-12-11T06:41:29;0.70;99.90
62991;DHT22;49084;48.204;16.202;2022-12-11T06:43:55;1.10;99.90
62991;DHT22;49084;48.204;16.202;2022-12-11T06:46:20;0.70;99.90
62991;DHT22;49084;48.204;16.202;2022-12-11T06:48:47;1.70;99.90
62991;DHT22;49084;48.204;16.202;2022-12-11T06:51:18;1.00;99.90
62991;DHT22;49084;48.204;16.202;2022-12-11T06:56:16;0.70;99.90
62991;DHT22;49084;48.204;16.202;2022-12-11T06:58:42;0.70;99.90
62991;DHT22;49084;48.204;16.202;2022-12-11T07:01:21;0.70;99.90
62991;DHT22;49084;48.204;16.202;2022-12-11T07:06:23;0.70;99.90
62991;DHT22;49084;48.204;16.202;2022-12-11T07:08:49;0.70;99.90
62991;DHT22;49084;48.204;16.202;2022-12-11T07:11:16;1.20;99.90
62991;DHT22;49084;48.204;16.202;2022-12-11T07:13:43;1.00;99.90
62991;DHT22;49084;48.204;16.202;2022-12-11T07:16:10;0.70;99.90
62991;DHT22;49084;48.204;16.202;2022-12-11T07:21:12;0.60;99.90
62991;DHT22;49084;48.204;16.202;2022-12-11T07:23:38;0.70;99.90
62991;DHT22;49084;48.204;16.202;2022-12-11T07:26:10;0.70;99.90
62991;DHT22;49084;48.204;16.202;2022-12-11T07:28:37;0.70;99.90
62991;DHT22;49084;48.204;16.202;2022-12-11T07:31:11;0.70;99.90
62991;DHT22;49084;48.204;16.202;2022-12-11T07:38:48;0.80;99.90
62991;DHT22;49084;48.204;16.202;2022-12-11T07:41:15;0.80;99.90
62991;DHT22;49084;48.204;16.202;2022-12-11T07:43:42;2.20;99.90
62991;DHT22;49084;48.204;16.202;2022-12-11T07:46:16;0.80;99.90
62991;DHT22;49084;48.204;16.202;2022-12-11T07:48:44;1.20;99.90
62991;DHT22;49084;48.204;16.202;2022-12-11T07:53:41;0.80;99.90
62991;DHT22;49084;48.204;16.202;2022-12-11T07:56:07;0.80;99.90
62991;DHT22;49084;48.204;16.202;2022-12-11T07:58:33;0.80;99.90
62991;DHT22;49084;48.204;16.202;2022-12-11T08:01:00;0.80;99.90
62991;DHT22;49084;48.204;16.202;2022-12-11T08:03:26;0.80;99.90
62991;DHT22;49084;48.204;16.202;2022-12-11T08:05:52;0.80;99.90
62991;DHT22;49084;48.204;16.202;2022-12-11T08:08:18;0.80;99.90
62991;DHT22;49084;48.204;16.202;2022-12-11T08:10:44;0.90;99.90
62991;DHT22;49084;48.204;16.202;2022-12-11T08:13:10;0.90;99.90
62991;DHT22;49084;48.204;16.202;2022-12-11T08:15:36;1.00;99.90
62991;DHT22;49084;48.204;16.202;2022-12-11T08:18:03;1.00;99.90
62991;DHT22;49084;48.204;16.202;2022-12-11T08:20:29;1.00;99.90
62991;DHT22;49084;48.204;16.202;2022-12-11T08:22:55;1.00;99.90
62991;DHT22;49084;48.204;16.202;2022-12-11T08:25:21;1.00;99.90
62991;DHT22;49084;48.204;16.202;2022-12-11T08:27:47;1.10;99.90
62991;DHT22;49084;48.204;16.202;2022-12-11T08:30:13;1.10;99.90
62991;DHT22;49084;48.204;16.202;2022-12-11T08:32:39;1.10;99.90
62991;DHT22;49084;48.204;16.202;2022-12-11T08:35:05;1.30;99.90
62991;DHT22;49084;48.204;16.202;2022-12-11T08:37:30;1.40;99.90
62991;DHT22;49084;48.204;16.202;2022-12-11T08:39:56;1.70;99.90
62991;DHT22;49084;48.204;16.202;2022-12-11T08:42:22;2.00;99.90
62991;DHT22;49084;48.204;16.202;2022-12-11T08:44:47;2.00;99.90
62991;DHT22;49084;48.204;16.202;2022-12-11T08:47:13;2.20;99.90
62991;DHT22;49084;48.204;16.202;2022-12-11T08:49:40;2.40;99.90
62991;DHT22;49084;48.204;16.202;2022-12-11T08:52:05;2.30;99.90
62991;DHT22;49084;48.204;16.202;2022-12-11T08:54:31;2.10;99.90
62991;DHT22;49084;48.204;16.202;2022-12-11T08:56:57;2.10;99.90
62991;DHT22;49084;48.204;16.202;2022-12-11T08:59:22;2.40;99.90
62991;DHT22;49084;48.204;16.202;2022-12-11T09:01:50;1.90;99.90
62991;DHT22;49084;48.204;16.202;2022-12-11T09:04:15;2.20;99.90
62991;DHT22;49084;48.204;16.202;2022-12-11T09:06:41;2.20;99.90
62991;DHT22;49084;48.204;16.202;2022-12-11T09:09:07;1.90;99.90
62991;DHT22;49084;48.204;16.202;2022-12-11T09:11:35;1.90;99.90
62991;DHT22;49084;48.204;16.202;2022-12-11T09:14:01;1.90;99.90
62991;DHT22;49084;48.204;16.202;2022-12-11T09:16:28;2.20;99.90
62991;DHT22;49084;48.204;16.202;2022-12-11T09:18:55;2.20;99.90
62991;DHT22;49084;48.204;16.202;2022-12-11T09:21:27;2.30;99.90
62991;DHT22;49084;48.204;16.202;2022-12-11T09:23:58;2.50;99.90
62991;DHT22;49084;48.204;16.202;2022-12-11T09:26:25;2.50;99.90
62991;DHT22;49084;48.204;16.202;2022-12-11T09:28:51;2.40;99.90
62991;DHT22;49084;48.204;16.202;2022-12-11T09:31:22;2.70;99.90
62991;DHT22;49084;48.204;16.202;2022-12-11T09:33:48;3.10;99.90
62991;DHT22;49084;48.204;16.202;2022-12-11T09:36:14;3.50;99.90
62991;DHT22;49084;48.204;16.202;2022-12-11T09:38:40;3.60;99.90
62991;DHT22;49084;48.204;16.202;2022-12-11T09:41:38;3.60;99.90
62991;DHT22;49084;48.204;16.202;2022-12-11T09:46:58;3.40;99.90
62991;DHT22;49084;48.204;16.202;2022-12-11T09:49:34;2.70;99.90
62991;DHT22;49084;48.204;16.202;2022-12-11T09:52:15;2.50;99.90
62991;DHT22;49084;48.204;16.202;2022-12-11T09:55:03;2.30;99.90
62991;DHT22;49084;48.204;16.202;2022-12-11T09:57:55;2.70;99.90
62991;DHT22;49084;48.204;16.202;2022-12-11T10:00:47;3.20;99.90
62991;DHT22;49084;48.204;16.202;2022-12-11T10:03:21;3.80;99.90
62991;DHT22;49084;48.204;16.202;2022-12-11T10:11:01;3.60;99.90
62991;DHT22;49084;48.204;16.202;2022-12-11T10:19:15;3.00;99.90
62991;DHT22;49084;48.204;16.202;2022-12-11T10:21:42;2.80;99.90
62991;DHT22;49084;48.204;16.202;2022-12-11T10:28:14;2.70;99.90
62991;DHT22;49084;48.204;16.202;2022-12-11T11:05:13;2.20;99.90
62991;DHT22;49084;48.204;16.202;2022-12-11T11:07:39;2.10;99.90
62991;DHT22;49084;48.204;16.202;2022-12-11T11:10:48;2.10;99.90
62991;DHT22;49084;48.204;16.202;2022-12-11T11:16:46;2.20;99.90
62991;DHT22;49084;48.204;16.202;2022-12-11T11:22:53;2.50;99.90
62991;DHT22;49084;48.204;16.202;2022-12-11T11:28:27;2.50;99.90
62991;DHT22;49084;48.204;16.202;2022-12-11T11:31:03;2.30;99.90
62991;DHT22;49084;48.204;16.202;2022-12-11T11:34:07;2.30;99.90
62991;DHT22;49084;48.204;16.202;2022-12-11T11:36:35;2.00;99.90
62991;DHT22;49084;48.204;16.202;2022-12-11T11:41:39;1.80;99.90
62991;DHT22;49084;48.204;16.202;2022-12-11T12:05:13;1.50;99.90
62991;DHT22;49084;48.204;16.202;2022-12-11T12:07:43;1.40;99.90
62991;DHT22;49084;48.204;16.202;2022-12-11T12:26:59;2.40;99.90
62991;DHT22;49084;48.204;16.202;2022-12-11T12:33:19;1.90;99.90
62991;DHT22;49084;48.204;16.202;2022-12-11T12:56:19;1.60;99.90
62991;DHT22;49084;48.204;16.202;2022-12-11T12:58:49;1.50;99.90
62991;DHT22;49084;48.204;16.202;2022-12-11T13:01:26;1.50;99.90
62991;DHT22;49084;48.204;16.202;2022-12-11T13:04:02;1.40;99.90
62991;DHT22;49084;48.204;16.202;2022-12-11T13:06:51;1.40;99.90
62991;DHT22;49084;48.204;16.202;2022-12-11T13:09:55;1.40;99.90
62991;DHT22;49084;48.204;16.202;2022-12-11T13:16:04;1.40;99.90
62991;DHT22;49084;48.204;16.202;2022-12-11T13:18:37;1.30;99.90
62991;DHT22;49084;48.204;16.202;2022-12-11T13:21:34;1.30;99.90
62991;DHT22;49084;48.204;16.202;2022-12-11T13:24:14;1.30;99.90
62991;DHT22;49084;48.204;16.202;2022-12-11T13:26:40;1.20;99.90
62991;DHT22;49084;48.204;16.202;2022-12-11T13:29:36;1.10;99.90
62991;DHT22;49084;48.204;16.202;2022-12-11T13:32:20;1.00;99.90
62991;DHT22;49084;48.204;16.202;2022-12-11T13:34:55;0.90;99.90
62991;DHT22;49084;48.204;16.202;2022-12-11T13:37:32;0.80;99.90
62991;DHT22;49084;48.204;16.202;2022-12-11T13:40:03;0.90;99.90
62991;DHT22;49084;48.204;16.202;2022-12-11T13:43:02;0.90;99.90
62991;DHT22;49084;48.204;16.202;2022-12-11T13:45:42;0.80;99.90
62991;DHT22;49084;48.204;16.202;2022-12-11T13:48:18;0.80;99.90
62991;DHT22;49084;48.204;16.202;2022-12-11T13:50:56;0.70;99.90
62991;DHT22;49084;48.204;16.202;2022-12-11T13:53:22;0.70;99.90
62991;DHT22;49084;48.204;16.202;2022-12-11T13:59:23;0.70;99.90
62991;DHT22;49084;48.204;16.202;2022-12-11T14:04:50;0.70;99.90
62991;DHT22;49084;48.204;16.202;2022-12-11T14:07:31;1.00;99.90
62991;DHT22;49084;48.204;16.202;2022-12-11T14:10:05;1.10;99.90
62991;DHT22;49084;48.204;16.202;2022-12-11T14:12:32;0.90;99.90
62991;DHT22;49084;48.204;16.202;2022-12-11T14:14:59;0.80;99.90
62991;DHT22;49084;48.204;16.202;2022-12-11T14:17:31;0.70;99.90
62991;DHT22;49084;48.204;16.202;2022-12-11T14:20:00;0.70;99.90
62991;DHT22;49084;48.204;16.202;2022-12-11T14:22:28;0.60;99.90
62991;DHT22;49084;48.204;16.202;2022-12-11T14:24:56;0.60;99.90
62991;DHT22;49084;48.204;16.202;2022-12-11T14:27:24;0.50;99.90
62991;DHT22;49084;48.204;16.202;2022-12-11T14:29:51;0.60;99.90
62991;DHT22;49084;48.204;16.202;2022-12-11T14:34:54;0.40;99.90
62991;DHT22;49084;48.204;16.202;2022-12-11T14:37:20;0.40;99.90
62991;DHT22;49084;48.204;16.202;2022-12-11T14:42:53;0.40;99.90
62991;DHT22;49084;48.204;16.202;2022-12-11T14:45:38;0.40;99.90
62991;DHT22;49084;48.204;16.202;2022-12-11T14:48:12;0.30;99.90
62991;DHT22;49084;48.204;16.202;2022-12-11T14:50:47;0.40;99.90
62991;DHT22;49084;48.204;16.202;2022-12-11T14:53:26;0.30;99.90
62991;DHT22;49084;48.204;16.202;2022-12-11T14:55:54;0.30;99.90
62991;DHT22;49084;48.204;16.202;2022-12-11T14:58:24;0.60;99.90
62991;DHT22;49084;48.204;16.202;2022-12-11T15:01:03;0.30;99.90
62991;DHT22;49084;48.204;16.202;2022-12-11T15:03:34;0.20;99.90
62991;DHT22;49084;48.204;16.202;2022-12-11T15:06:20;0.20;99.90
62991;DHT22;49084;48.204;16.202;2022-12-11T15:08:47;0.20;99.90
62991;DHT22;49084;48.204;16.202;2022-12-11T15:11:14;0.20;99.90
62991;DHT22;49084;48.204;16.202;2022-12-11T15:13:53;0.20;99.90
62991;DHT22;49084;48.204;16.202;2022-12-11T15:16:20;0.20;99.90
62991;DHT22;49084;48.204;16.202;2022-12-11T15:18:51;0.20;99.90
62991;DHT22;49084;48.204;16.202;2022-12-11T15:21:18;0.20;99.90
62991;DHT22;49084;48.204;16.202;2022-12-11T15:23:54;0.20;99.90
62991;DHT22;49084;48.204;16.202;2022-12-11T15:29:03;1.90;99.90
62991;DHT22;49084;48.204;16.202;2022-12-11T15:31:32;0.30;99.90
62991;DHT22;49084;48.204;16.202;2022-12-11T15:34:00;0.30;99.90
62991;DHT22;49084;48.204;16.202;2022-12-11T15:36:30;1.80;99.90
62991;DHT22;49084;48.204;16.202;2022-12-11T15:38:56;0.30;99.90
62991;DHT22;49084;48.204;16.202;2022-12-11T15:41:23;0.30;99.90
62991;DHT22;49084;48.204;16.202;2022-12-11T15:43:53;0.30;99.90
62991;DHT22;49084;48.204;16.202;2022-12-11T15:46:20;0.20;99.90
62991;DHT22;49084;48.204;16.202;2022-12-11T15:48:49;0.20;99.90
62991;DHT22;49084;48.204;16.202;2022-12-11T15:51:15;0.20;99.90
62991;DHT22;49084;48.204;16.202;2022-12-11T15:53:41;0.20;99.90
62991;DHT22;49084;48.204;16.202;2022-12-11T15:56:17;0.20;99.90
62991;DHT22;49084;48.204;16.202;2022-12-11T15:58:46;0.00;99.90
62991;DHT22;49084;48.204;16.202;2022-12-11T16:01:16;0.00;99.90
62991;DHT22;49084;48.204;16.202;2022-12-11T16:03:42;1.00;99.90
62991;DHT22;49084;48.204;16.202;2022-12-11T16:06:11;1.10;99.90
62991;DHT22;49084;48.204;16.202;2022-12-11T16:08:37;0.00;99.90
62991;DHT22;49084;48.204;16.202;2022-12-11T16:11:03;0.00;99.90
62991;DHT22;49084;48.204;16.202;2022-12-11T16:13:29;0.00;99.90
62991;DHT22;49084;48.204;16.202;2022-12-11T16:15:55;0.00;99.90
62991;DHT22;49084;48.204;16.202;2022-12-11T16:18:23;0.00;99.90
62991;DHT22;49084;48.204;16.202;2022-12-11T16:20:50;0.00;99.90
62991;DHT22;49084;48.204;16.202;2022-12-11T16:23:16;-0.10;99.90
62991;DHT22;49084;48.204;16.202;2022-12-11T16:25:43;-0.10;99.90
62991;DHT22;49084;48.204;16.202;2022-12-11T16:28:12;0.60;99.90
62991;DHT22;49084;48.204;16.202;2022-12-11T16:30:38;-0.10;99.90
62991;DHT22;49084;48.204;16.202;2022-12-11T16:33:05;1.10;99.90
62991;DHT22;49084;48.204;16.202;2022-12-11T16:35:31;0.60;99.90
62991;DHT22;49084;48.204;16.202;2022-12-11T16:37:57;0.10;99.90
62991;DHT22;49084;48.204;16.202;2022-12-11T16:40:23;0.00;99.90
62991;DHT22;49084;48.204;16.202;2022-12-11T16:42:49;0.00;99.90
62991;DHT22;49084;48.204;16.202;2022-12-11T16:45:24;-0.10;99.90
62991;DHT22;49084;48.204;16.202;2022-12-11T16:47:51;-0.10;99.90
62991;DHT22;49084;48.204;16.202;2022-12-11T16:50:18;-0.10;99.90
62991;DHT22;49084;48.204;16.202;2022-12-11T16:52:44;-0.10;99.90
62991;DHT22;49084;48.204;16.202;2022-12-11T16:55:11;0.10;99.90
62991;DHT22;49084;48.204;16.202;2022-12-11T16:57:37;0.10;99.90
62991;DHT22;49084;48.204;16.202;2022-12-11T17:00:08;0.50;99.90
62991;DHT22;49084;48.204;16.202;2022-12-11T17:02:35;0.00;99.90
62991;DHT22;49084;48.204;16.202;2022-12-11T17:05:01;0.00;99.90
62991;DHT22;49084;48.204;16.202;2022-12-11T17:07:26;0.00;99.90
62991;DHT22;49084;48.204;16.202;2022-12-11T17:09:52;-0.10;99.90
62991;DHT22;49084;48.204;16.202;2022-12-11T17:12:18;1.20;99.90
62991;DHT22;49084;48.204;16.202;2022-12-11T17:14:47;1.10;99.90
62991;DHT22;49084;48.204;16.202;2022-12-11T17:17:13;-0.10;99.90
62991;DHT22;49084;48.204;16.202;2022-12-11T17:19:38;-0.10;99.90
62991;DHT22;49084;48.204;16.202;2022-12-11T17:22:04;-0.10;99.90
62991;DHT22;49084;48.204;16.202;2022-12-11T17:24:30;-0.20;99.90
62991;DHT22;49084;48.204;16.202;2022-12-11T17:26:56;-0.20;99.90
62991;DHT22;49084;48.204;16.202;2022-12-11T17:29:22;-0.30;99.90
62991;DHT22;49084;48.204;16.202;2022-12-11T17:31:48;-0.30;99.90
62991;DHT22;49084;48.204;16.202;2022-12-11T17:34:14;-0.30;99.90
62991;DHT22;49084;48.204;16.202;2022-12-11T17:36:41;-0.40;99.90
62991;DHT22;49084;48.204;16.202;2022-12-11T17:39:07;-0.40;99.90
62991;DHT22;49084;48.204;16.202;2022-12-11T17:41:32;0.60;99.90
62991;DHT22;49084;48.204;16.202;2022-12-11T17:43:58;-0.40;99.90
62991;DHT22;49084;48.204;16.202;2022-12-11T17:46:24;-0.40;99.90
62991;DHT22;49084;48.204;16.202;2022-12-11T17:48:50;-0.40;99.90
62991;DHT22;49084;48.204;16.202;2022-12-11T17:51:17;-0.40;99.90
62991;DHT22;49084;48.204;16.202;2022-12-11T17:53:49;-0.40;99.90
62991;DHT22;49084;48.204;16.202;2022-12-11T17:56:15;-0.50;99.90
62991;DHT22;49084;48.204;16.202;2022-12-11T17:58:41;-0.40;99.90
62991;DHT22;49084;48.204;16.202;2022-12-11T18:01:09;-0.40;99.90
62991;DHT22;49084;48.204;16.202;2022-12-11T18:03:35;-0.50;99.90
62991;DHT22;49084;48.204;16.202;2022-12-11T18:06:06;-0.50;99.90
62991;DHT22;49084;48.204;16.202;2022-12-11T18:08:32;-0.40;99.90
62991;DHT22;49084;48.204;16.202;2022-12-11T18:11:19;-0.40;99.90
62991;DHT22;49084;48.204;16.202;2022-12-11T18:13:49;-0.50;99.90
62991;DHT22;49084;48.204;16.202;2022-12-11T18:16:26;-0.50;99.90
62991;DHT22;49084;48.204;16.202;2022-12-11T18:18:54;-0.40;99.90
62991;DHT22;49084;48.204;16.202;2022-12-11T18:21:23;-0.40;99.90
62991;DHT22;49084;48.204;16.202;2022-12-11T18:23:52;-0.30;99.90
62991;DHT22;49084;48.204;16.202;2022-12-11T18:26:18;-0.30;99.90
62991;DHT22;49084;48.204;16.202;2022-12-11T18:28:45;-0.30;99.90
62991;DHT22;49084;48.204;16.202;2022-12-11T18:31:12;-0.30;99.90
62991;DHT22;49084;48.204;16.202;2022-12-11T18:33:39;-0.30;99.90
62991;DHT22;49084;48.204;16.202;2022-12-11T18:36:06;-0.40;99.90